Time;durP1;ratioP1;P1;durP2;ratioP2;P2;SDS_P1;SDS_P2;PMS_P1;PMS_P2;Temp;Humidity;BMP_temperature;BMP_pressure;BME280_temperature;BME280_humidity;BME280_pressure;Samples;Min_cycle;Max_cycle;Signal;HPM_P1;HPM_P2
2022/06/22 00:01:52;;;;;;;6.20;1.85;;;;;;;17.76;55.06;100070.59;6211359;23;20389;-72
2022/06/22 00:04:20;;;;;;;;;;;;;;;17.71;55.63;100073.03;6212021;23;20012;-72
2022/06/22 00:07:01;;;;;;;5.80;1.88;;;;;;;17.60;55.87;100041.78;6212643;23;20297;-72
2022/06/22 00:09:33;;;;;;;3.85;1.70;;;;;;;17.68;56.23;100068.00;6213314;23;20123;-72
2022/06/22 00:12:00;;;;;;;5.15;1.88;;;;;;;17.68;56.51;100055.28;6213297;23;20011;-72
2022/06/22 00:14:42;;;;;;;6.30;2.38;;;;;;;17.68;56.46;100039.00;6213205;23;20529;-72
2022/06/22 00:17:20;;;;;;;5.43;2.20;;;;;;;17.67;56.72;100023.72;6213389;23;20075;-72
2022/06/22 00:19:47;;;;;;;4.72;2.05;;;;;;;17.69;57.06;100031.69;6213126;23;20453;-72
2022/06/22 00:22:26;;;;;;;4.03;2.10;;;;;;;17.69;56.78;100040.69;6212896;23;20027;-72
2022/06/22 00:25:24;;;;;;;4.60;1.85;;;;;;;17.65;56.66;100036.66;6212744;23;20016;-72
2022/06/22 00:27:50;;;;;;;3.20;1.63;;;;;;;17.55;56.56;100022.53;6186231;23;20008;-72
2022/06/22 00:30:25;;;;;;;3.35;1.83;;;;;;;17.43;56.85;100012.31;6212909;23;20444;-72
2022/06/22 00:33:12;;;;;;;4.28;1.42;;;;;;;17.42;57.62;100033.16;6212621;23;20004;-72
2022/06/22 00:35:44;;;;;;;4.75;1.90;;;;;;;17.30;57.19;100017.50;6212849;23;20445;-72
2022/06/22 00:38:19;;;;;;;3.60;1.50;;;;;;;17.24;56.85;100001.97;6212633;23;20015;-71
2022/06/22 00:40:54;;;;;;;4.50;2.13;;;;;;;17.27;56.97;100016.00;6186098;23;20005;-72
2022/06/22 00:43:24;;;;;;;4.18;1.73;;;;;;;17.18;56.16;99995.44;6213045;23;20042;-72
2022/06/22 00:45:49;;;;;;;5.25;2.22;;;;;;;17.16;57.83;100011.03;6186240;23;20008;-72
2022/06/22 00:48:22;;;;;;;4.38;2.10;;;;;;;17.15;58.27;100022.06;6212769;23;20083;-72
2022/06/22 00:51:03;;;;;;;4.38;2.30;;;;;;;17.14;58.36;100020.38;6212791;23;20112;-72
2022/06/22 00:53:33;;;;;;;3.63;2.15;;;;;;;17.12;58.16;100034.09;6212944;23;20087;-72
2022/06/22 00:56:21;;;;;;;5.40;2.13;;;;;;;17.00;58.78;100011.22;6212606;23;20442;-72
2022/06/22 00:58:47;;;;;;;7.18;1.75;;;;;;;17.08;59.23;100027.38;6212989;23;20019;-72
2022/06/22 01:01:18;;;;;;;4.88;1.60;;;;;;;17.05;59.02;100016.91;6212632;23;20032;-72
2022/06/22 01:04:24;;;;;;;4.18;1.55;;;;;;;17.05;58.62;100022.31;6211277;23;20489;-72
2022/06/22 01:07:25;;;;;;;3.47;1.80;;;;;;;17.02;58.37;100021.81;6212626;23;20012;-72
2022/06/22 01:10:05;;;;;;;2.63;1.70;;;;;;;16.98;59.37;100024.09;6163918;23;20385;-72
2022/06/22 01:12:37;;;;;;;2.40;1.75;;;;;;;16.94;59.27;100027.34;6212381;23;20028;-72
2022/06/22 01:15:17;;;;;;;3.25;1.73;;;;;;;16.90;59.13;100028.72;6212033;23;20008;-72
2022/06/22 01:17:51;;;;;;;3.22;1.70;;;;;;;16.87;58.91;100032.66;6211243;23;20011;-72
2022/06/22 01:20:44;;;;;;;3.30;1.90;;;;;;;16.86;60.57;100035.53;6185988;23;20013;-72
2022/06/22 01:23:28;;;;;;;4.00;1.70;;;;;;;16.82;61.22;100026.06;6184437;23;20062;-72
2022/06/22 01:25:57;;;;;;;2.60;1.63;;;;;;;16.84;61.29;100030.31;6211804;23;20013;-72
2022/06/22 01:28:24;;;;;;;4.18;1.38;;;;;;;16.81;59.98;100024.41;6212088;23;20298;-72
2022/06/22 01:30:55;;;;;;;3.13;1.63;;;;;;;16.81;59.37;100032.53;6185576;23;20009;-72
2022/06/22 01:33:26;;;;;;;1.80;1.60;;;;;;;16.76;60.30;100034.91;6211830;23;20082;-72
2022/06/22 01:35:58;;;;;;;3.13;1.70;;;;;;;16.69;60.69;100042.09;6211352;23;20024;-72
2022/06/22 01:38:29;;;;;;;3.35;1.83;;;;;;;16.58;60.54;100039.81;6185245;23;20009;-72
2022/06/22 01:41:15;;;;;;;2.13;1.52;;;;;;;16.59;61.40;100046.91;6211069;23;20096;-72
2022/06/22 01:44:00;;;;;;;2.35;1.60;;;;;;;16.56;61.18;100044.53;6211953;23;20009;-74
2022/06/22 01:46:35;;;;;;;2.85;1.70;;;;;;;16.56;61.90;100058.09;6212248;23;20066;-73
2022/06/22 01:49:10;;;;;;;2.88;1.50;;;;;;;16.54;62.79;100057.44;6212131;23;20342;-72
2022/06/22 01:51:55;;;;;;;3.45;1.63;;;;;;;16.54;63.15;100049.31;6212240;23;20013;-72
2022/06/22 01:54:25;;;;;;;3.63;1.83;;;;;;;16.56;62.37;100044.53;6211960;23;20067;-72
2022/06/22 01:57:06;;;;;;;2.58;1.70;;;;;;;16.55;61.99;100042.88;6212024;23;20009;-72
2022/06/22 01:59:37;;;;;;;4.07;2.03;;;;;;;16.53;61.57;100034.94;6210335;23;20036;-72
2022/06/22 02:02:18;;;;;;;5.72;1.85;;;;;;;16.53;62.34;100042.19;6211823;23;20030;-72
2022/06/22 02:04:51;;;;;;;4.60;2.08;;;;;;;16.50;63.13;100031.72;6212144;23;20442;-72
2022/06/22 02:10:16;;;;;;;4.82;2.35;;;;;;;16.45;63.93;100034.13;6211723;23;20116;-72
2022/06/22 02:12:52;;;;;;;2.53;1.83;;;;;;;16.44;63.72;100035.16;6211671;23;20008;-72
2022/06/22 02:15:25;;;;;;;3.40;1.70;;;;;;;16.41;63.76;100027.38;6211571;23;20008;-72
2022/06/22 02:17:52;;;;;;;3.30;1.60;;;;;;;16.33;62.64;100013.88;6211494;23;20008;-72
2022/06/22 02:20:29;;;;;;;6.47;1.77;;;;;;;16.40;63.51;100034.63;6211698;23;20004;-72
2022/06/22 02:23:04;;;;;;;4.97;1.95;;;;;;;16.33;62.70;100036.38;6211705;23;20414;-72
2022/06/22 02:25:35;;;;;;;3.85;1.80;;;;;;;16.34;63.04;100038.06;6185131;23;20044;-72
2022/06/22 02:28:01;;;;;;;7.93;2.40;;;;;;;16.26;63.96;100019.16;6211605;23;20358;-72
2022/06/22 02:30:27;;;;;;;9.48;2.63;;;;;;;16.37;64.14;100035.00;6211630;23;20012;-72
2022/06/22 02:32:53;;;;;;;9.23;3.15;;;;;;;16.31;64.35;100032.16;6210977;23;20001;-72
2022/06/22 02:35:19;;;;;;;4.03;2.70;;;;;;;16.31;64.65;100045.72;6211396;23;20004;-72
2022/06/22 02:37:50;;;;;;;5.03;2.85;;;;;;;16.19;65.14;100039.00;6211157;23;20035;-72
2022/06/22 02:40:22;;;;;;;2.65;2.33;;;;;;;16.22;66.05;100061.13;6211509;23;20008;-72
2022/06/22 02:45:32;;;;;;;3.13;2.45;;;;;;;16.18;65.44;100057.09;6211524;23;20429;-72
2022/06/22 02:48:01;;;;;;;2.75;2.15;;;;;;;16.14;65.99;100060.31;6210041;23;20008;-72
2022/06/22 02:50:47;;;;;;;6.25;2.22;;;;;;;16.15;65.84;100064.72;6211569;23;20005;-72
2022/06/22 02:53:25;;;;;;;4.78;2.50;;;;;;;16.12;65.51;100065.91;6211172;23;20004;-72
2022/06/22 02:55:53;;;;;;;3.80;2.30;;;;;;;16.06;65.69;100087.41;6211176;23;20091;-72
2022/06/22 02:58:30;;;;;;;7.15;2.90;;;;;;;16.06;67.34;100085.56;6211470;23;20012;-72
2022/06/22 03:01:04;;;;;;;6.40;2.45;;;;;;;16.02;66.83;100081.50;6211377;23;20008;-72
2022/06/22 03:03:32;;;;;;;5.80;2.47;;;;;;;16.01;66.85;100092.50;6211089;23;20028;-72
2022/06/22 03:05:58;;;;;;;8.73;2.90;;;;;;;15.99;67.43;100087.25;6211423;23;20031;-72
2022/06/22 03:08:25;;;;;;;10.30;3.13;;;;;;;15.94;68.21;100085.06;6211390;23;20012;-72
2022/06/22 03:10:52;;;;;;;12.45;2.97;;;;;;;15.96;68.84;100075.97;6211409;23;20001;-72
2022/06/22 03:13:29;;;;;;;8.27;2.90;;;;;;;15.87;68.81;100067.88;6211118;23;20008;-72
2022/06/22 03:15:56;;;;;;;10.43;2.80;;;;;;;15.83;68.54;100068.38;6211245;23;20103;-72
2022/06/22 03:18:29;;;;;;;6.93;2.25;;;;;;;15.90;67.54;100088.34;6211248;23;20809;-72
2022/06/22 03:21:02;;;;;;;8.88;2.58;;;;;;;15.88;68.98;100091.22;6211187;23;20013;-72
2022/06/22 03:24:08;;;;;;;6.60;2.47;;;;;;;15.93;68.58;100085.28;6211556;23;20007;-72
2022/06/22 03:26:41;;;;;;;10.35;2.65;;;;;;;15.90;67.88;100085.63;6118895;23;20086;-72
2022/06/22 03:29:09;;;;;;;3.40;2.45;;;;;;;15.98;68.44;100085.59;6196290;23;20019;-72
2022/06/22 03:31:43;;;;;;;5.07;2.60;;;;;;;15.98;67.84;100092.84;6211141;23;20004;-72
2022/06/22 03:34:15;;;;;;;6.05;2.50;;;;;;;16.00;66.09;100104.34;6211127;23;20009;-72
2022/06/22 03:36:51;;;;;;;7.82;2.38;;;;;;;16.01;68.56;100106.03;6211181;23;20000;-72
2022/06/22 03:39:20;;;;;;;22.60;3.85;;;;;;;16.00;68.64;100109.75;6211435;23;20087;-72
2022/06/22 03:42:00;;;;;;;15.50;2.80;;;;;;;16.00;68.74;100109.75;6213365;23;20051;-72
2022/06/22 03:44:32;;;;;;;21.98;3.42;;;;;;;16.03;69.37;100104.00;6213907;23;20452;-72
2022/06/22 03:47:08;;;;;;;11.63;2.95;;;;;;;16.00;68.93;100090.81;6206878;23;20051;-71
2022/06/22 03:49:42;;;;;;;9.00;2.80;;;;;;;16.06;68.82;100092.84;6210621;23;20000;-72
2022/06/22 03:52:18;;;;;;;12.82;3.00;;;;;;;16.10;68.93;100096.88;6186566;23;20095;-72
2022/06/22 03:54:51;;;;;;;9.65;2.78;;;;;;;16.07;68.02;100094.50;6212726;23;20430;-72
2022/06/22 03:57:24;;;;;;;16.92;3.33;;;;;;;16.14;68.60;100095.50;6212919;23;20050;-72
2022/06/22 03:59:49;;;;;;;10.32;3.00;;;;;;;16.17;68.46;100095.16;6212906;23;20004;-72
2022/06/22 04:02:18;;;;;;;11.50;2.90;;;;;;;16.23;67.74;100089.03;6213203;23;20012;-72
2022/06/22 04:04:44;;;;;;;8.95;3.42;;;;;;;16.32;67.61;100091.53;6212497;23;20123;-65
2022/06/22 04:07:13;;;;;;;7.68;3.08;;;;;;;16.46;67.68;100098.94;6212674;23;20032;-64
2022/06/22 04:09:44;;;;;;;10.70;2.70;;;;;;;16.60;66.29;100090.03;6212495;23;20044;-65
2022/06/22 04:12:16;;;;;;;18.83;3.63;;;;;;;16.64;65.94;100082.41;6212500;23;20084;-64
2022/06/22 04:14:53;;;;;;;11.13;3.08;;;;;;;16.69;65.78;100085.41;6212369;23;20055;-64
2022/06/22 04:17:37;;;;;;;12.50;6.32;;;;;;;16.78;64.63;100070.81;6212471;23;20031;-64
2022/06/22 04:20:18;;;;;;;21.45;10.52;;;;;;;16.99;63.99;100074.53;6212502;23;20008;-65
2022/06/22 04:22:48;;;;;;;10.90;6.43;;;;;;;17.11;63.20;100075.78;6212470;23;20008;-65
2022/06/22 04:25:17;;;;;;;11.35;6.10;;;;;;;17.30;62.37;100083.41;6212335;23;20066;-64
2022/06/22 04:27:48;;;;;;;9.57;5.57;;;;;;;17.49;61.95;100073.94;6211337;23;20070;-64
2022/06/22 04:30:23;;;;;;;9.48;5.60;;;;;;;17.56;61.54;100061.31;6185608;23;20000;-64
2022/06/22 04:33:06;;;;;;;12.48;5.13;;;;;;;17.66;61.15;100070.03;6212194;23;20731;-64
2022/06/22 04:36:01;;;;;;;12.95;4.60;;;;;;;17.74;61.74;100065.34;6212421;23;20032;-64
2022/06/22 04:38:51;;;;;;;10.95;4.90;;;;;;;17.81;61.24;100079.03;6212653;23;20016;-65
2022/06/22 04:41:37;;;;;;;6.95;4.43;;;;;;;17.94;61.33;100079.22;6212126;23;20008;-65
2022/06/22 04:44:18;;;;;;;15.20;4.72;;;;;;;17.99;59.92;100066.75;6212142;23;20043;-64
2022/06/22 04:46:47;;;;;;;10.77;4.93;;;;;;;18.07;61.04;100065.84;6212327;23;20115;-64
2022/06/22 04:49:22;;;;;;;28.75;6.45;;;;;;;18.05;60.60;100068.72;6212164;23;20011;-64
2022/06/22 04:51:53;;;;;;;23.23;6.05;;;;;;;18.13;60.55;100073.22;6211989;23;20008;-64
2022/06/22 04:54:31;;;;;;;21.05;6.97;;;;;;;18.22;60.52;100065.81;6212077;23;20016;-64
2022/06/22 04:57:01;;;;;;;25.25;8.20;;;;;;;18.35;59.09;100072.25;6185853;23;20055;-64
2022/06/22 04:59:28;;;;;;;18.10;7.20;;;;;;;18.48;59.08;100075.16;6212507;23;20326;-65
2022/06/22 05:02:02;;;;;;;16.90;6.72;;;;;;;18.59;58.95;100088.25;6211823;23;20007;-65
2022/06/22 05:04:36;;;;;;;16.00;5.33;;;;;;;18.66;59.67;100105.44;6211994;23;19993;-65
2022/06/22 05:07:04;;;;;;;25.00;5.65;;;;;;;18.69;59.83;100096.06;6212066;23;20008;-66
2022/06/22 05:09:53;;;;;;;16.38;4.03;;;;;;;18.74;59.83;100107.22;6211985;23;20017;-65
2022/06/22 05:12:23;;;;;;;15.98;3.30;;;;;;;18.87;59.66;100100.06;6211935;23;20003;-66
2022/06/22 05:14:50;;;;;;;15.98;3.35;;;;;;;18.95;58.30;100097.19;6185061;23;20003;-62
2022/06/22 05:17:27;;;;;;;8.85;2.50;;;;;;;19.09;58.45;100100.91;6211631;23;20004;-61
2022/06/22 05:20:01;;;;;;;18.00;2.88;;;;;;;19.28;57.48;100097.56;6211652;23;20005;-61
2022/06/22 05:22:27;;;;;;;9.00;2.47;;;;;;;19.46;57.47;100089.75;6211853;23;20430;-63
2022/06/22 05:24:57;;;;;;;18.77;3.45;;;;;;;19.71;57.30;100094.56;6211410;23;20016;-61
2022/06/22 05:27:29;;;;;;;7.28;2.10;;;;;;;19.99;55.99;100097.22;6211539;23;20008;-63
2022/06/22 05:30:07;;;;;;;13.65;2.22;;;;;;;20.31;54.17;100110.22;6211420;23;20012;-63
2022/06/22 05:32:43;;;;;;;6.10;1.80;;;;;;;20.45;53.34;100097.53;6211384;23;20004;-62
2022/06/22 05:35:19;;;;;;;7.13;1.83;;;;;;;20.67;52.53;100108.06;6211358;23;20019;-63
2022/06/22 05:37:50;;;;;;;5.35;1.60;;;;;;;20.91;51.22;100093.03;6211365;23;20001;-62
2022/06/22 05:40:19;;;;;;;4.10;1.27;;;;;;;21.06;50.27;100101.94;6211427;23;20012;-62
2022/06/22 05:42:44;;;;;;;6.15;1.88;;;;;;;21.17;49.15;100098.56;6211478;23;20080;-63
2022/06/22 05:45:16;;;;;;;5.80;1.52;;;;;;;21.41;48.37;100103.44;6211120;23;20032;-62
2022/06/22 05:47:43;;;;;;;3.55;1.58;;;;;;;21.47;48.06;100092.50;6184749;23;20087;-62
2022/06/22 05:50:37;;;;;;;6.10;1.75;;;;;;;21.63;47.84;100100.28;6211342;23;20015;-63
2022/06/22 05:53:20;;;;;;;3.92;1.50;;;;;;;21.84;47.17;100110.16;6211241;23;20015;-63
2022/06/22 05:56:00;;;;;;;2.83;1.30;;;;;;;22.02;46.81;100116.66;6211391;23;20020;-62
2022/06/22 05:58:56;;;;;;;8.80;2.00;;;;;;;22.28;47.08;100124.78;6211303;23;20249;-62
2022/06/22 06:01:41;;;;;;;5.78;1.50;;;;;;;22.58;46.31;100122.41;6209541;23;20505;-61
2022/06/22 06:04:48;;;;;;;6.13;1.70;;;;;;;22.97;43.75;100122.22;6210708;23;20082;-63
2022/06/22 06:07:32;;;;;;;5.45;1.50;;;;;;;23.23;44.00;100124.81;6090085;23;20006;-70
2022/06/22 06:09:59;;;;;;;8.10;1.40;;;;;;;23.38;43.09;100095.19;6205897;23;20058;-71
2022/06/22 06:12:31;;;;;;;4.78;1.73;;;;;;;23.66;42.93;100120.25;6209940;23;20004;-70
2022/06/22 06:14:57;;;;;;;4.43;1.27;;;;;;;23.85;42.50;100118.41;6210840;23;20080;-70
2022/06/22 06:17:35;;;;;;;2.70;1.35;;;;;;;24.04;42.59;100104.56;6209647;23;20009;-71
2022/06/22 06:20:03;;;;;;;3.63;1.42;;;;;;;24.23;41.34;100108.13;6210951;23;20536;-71
2022/06/22 06:22:30;;;;;;;6.35;1.70;;;;;;;24.31;40.95;100102.34;6210696;23;20009;-71
2022/06/22 06:27:54;;;;;;;1.65;0.88;;;;;;;24.51;40.83;100102.97;6210772;23;20054;-71
2022/06/22 06:30:28;;;;;;;4.30;1.30;;;;;;;24.69;40.38;100096.66;6210916;23;20001;-70
2022/06/22 06:33:27;;;;;;;6.18;1.00;;;;;;;24.81;40.41;100100.28;6210699;23;20005;-71
2022/06/22 06:35:59;;;;;;;2.58;1.02;;;;;;;24.90;39.16;100090.66;6210730;23;20013;-72
2022/06/22 06:38:33;;;;;;;1.92;1.20;;;;;;;25.08;38.18;100105.16;6210870;23;20025;-71
2022/06/22 06:41:14;;;;;;;5.55;1.35;;;;;;;25.23;38.48;100101.97;6210972;23;20004;-71
2022/06/22 06:44:00;;;;;;;3.08;1.10;;;;;;;25.33;38.95;100116.84;6210836;23;20011;-72
2022/06/22 06:46:31;;;;;;;7.85;1.40;;;;;;;25.49;38.97;100115.31;6210683;23;20031;-71
2022/06/22 06:49:11;;;;;;;4.05;1.33;;;;;;;25.62;37.15;100104.13;6210806;23;20012;-72
2022/06/22 06:51:41;;;;;;;4.00;1.20;;;;;;;25.56;37.59;100094.91;6211198;23;20015;-72
2022/06/22 06:54:25;;;;;;;2.88;1.00;;;;;;;25.63;37.63;100090.16;6210896;23;20005;-70
2022/06/22 06:57:16;;;;;;;3.58;1.23;;;;;;;25.80;35.82;100079.28;6210848;23;20013;-72
2022/06/22 06:59:45;;;;;;;3.00;1.48;;;;;;;25.85;36.05;100085.75;6184299;23;20030;-71
2022/06/22 07:02:36;;;;;;;2.38;1.00;;;;;;;25.96;34.31;100087.63;6184032;23;20004;-71
2022/06/22 07:05:06;;;;;;;4.03;1.20;;;;;;;25.91;34.72;100082.03;6195127;23;20032;-71
2022/06/22 07:07:42;;;;;;;2.88;0.90;;;;;;;25.98;35.81;100088.28;6210902;23;20008;-72
2022/06/22 07:10:17;;;;;;;4.30;1.00;;;;;;;26.12;35.10;100092.44;6210965;23;19996;-71
2022/06/22 07:12:59;;;;;;;11.18;1.50;;;;;;;26.23;35.42;100108.09;6210767;23;20009;-71
2022/06/22 07:15:32;;;;;;;5.10;1.17;;;;;;;26.30;33.88;100111.56;6211851;23;20009;-72
2022/06/22 07:18:02;;;;;;;3.47;1.15;;;;;;;26.31;33.63;100101.41;6212787;23;20030;-71
2022/06/22 07:20:37;;;;;;;2.47;0.80;;;;;;;26.19;34.31;100093.19;6213003;23;20008;-71
2022/06/22 07:23:23;;;;;;;3.38;1.10;;;;;;;26.20;34.38;100085.75;6212979;23;20054;-72
2022/06/22 07:25:54;;;;;;;3.13;0.90;;;;;;;26.25;34.18;100083.94;6161281;23;20008;-71
2022/06/22 07:28:28;;;;;;;2.63;0.93;;;;;;;26.36;34.07;100090.50;6212923;23;20058;-72
2022/06/22 07:31:05;;;;;;;1.92;0.93;;;;;;;26.40;34.04;100084.28;6212629;23;20019;-72
2022/06/22 07:33:40;;;;;;;14.60;1.50;;;;;;;26.56;34.26;100090.09;6212131;23;20005;-72
2022/06/22 07:36:22;;;;;;;4.93;1.23;;;;;;;26.66;34.05;100093.09;6213154;23;20005;-73
2022/06/22 07:39:09;;;;;;;3.47;0.95;;;;;;;26.82;33.79;100095.91;6213435;23;20036;-71
2022/06/22 07:41:36;;;;;;;1.10;1.00;;;;;;;26.82;33.36;100068.38;6213304;23;20087;-72
2022/06/22 07:44:06;;;;;;;6.07;1.15;;;;;;;26.93;33.11;100080.41;6186255;23;20441;-72
2022/06/22 07:46:49;;;;;;;3.15;0.80;;;;;;;27.00;33.02;100087.44;6186426;23;20270;-63
2022/06/22 07:49:46;;;;;;;1.38;0.88;;;;;;;27.07;32.21;100082.63;6212401;23;20399;-63
2022/06/22 07:52:22;;;;;;;3.92;0.90;;;;;;;27.20;32.17;100073.19;6107516;23;20012;-63
2022/06/22 07:54:52;;;;;;;5.45;1.00;;;;;;;27.23;32.24;100062.56;6212126;23;20013;-63
2022/06/22 07:57:49;;;;;;;3.47;1.00;;;;;;;27.40;31.78;100063.41;6212150;23;20583;-62
2022/06/22 08:00:21;;;;;;;1.27;0.73;;;;;;;27.49;31.74;100053.66;6212481;23;20038;-62
2022/06/22 08:03:05;;;;;;;1.17;0.73;;;;;;;27.70;31.64;100065.84;6212459;23;20007;-63
2022/06/22 08:05:39;;;;;;;2.35;0.68;;;;;;;27.66;31.47;100057.22;6185414;23;20034;-63
2022/06/22 08:08:17;;;;;;;1.45;0.75;;;;;;;27.67;31.21;100050.66;6212409;23;20009;-63
2022/06/22 08:11:15;;;;;;;4.97;1.20;;;;;;;27.74;31.08;100059.56;6212171;23;20004;-63
2022/06/22 08:13:55;;;;;;;1.83;0.85;;;;;;;27.78;31.49;100069.00;6165492;23;20044;-63
2022/06/22 08:16:36;;;;;;;4.95;0.90;;;;;;;27.74;31.16;100053.22;6212137;23;20084;-63
2022/06/22 08:19:02;;;;;;;1.65;0.95;;;;;;;27.78;30.87;100035.91;6212440;23;20005;-63
2022/06/22 08:21:28;;;;;;;2.38;0.70;;;;;;;27.88;30.01;100040.78;6212370;23;20016;-73
2022/06/22 08:23:56;;;;;;;5.32;0.88;;;;;;;27.82;30.30;100037.06;6212163;23;20007;-72
2022/06/22 08:26:27;;;;;;;4.30;0.70;;;;;;;27.88;30.60;100041.63;6211536;23;20016;-73
2022/06/22 08:28:54;;;;;;;4.07;0.95;;;;;;;28.00;30.51;100039.59;6212262;23;20009;-72
2022/06/22 08:31:19;;;;;;;2.80;0.73;;;;;;;27.86;30.21;100021.72;6212219;23;20350;-73
2022/06/22 08:34:10;;;;;;;2.72;0.90;;;;;;;28.10;30.13;100055.44;6212010;23;20000;-73
2022/06/22 08:36:38;;;;;;;9.48;1.30;;;;;;;28.17;30.00;100054.16;6212194;23;20315;-72
2022/06/22 08:39:11;;;;;;;3.28;0.80;;;;;;;28.16;30.20;100052.50;6212114;23;20015;-71
2022/06/22 08:41:39;;;;;;;5.88;1.35;;;;;;;28.15;29.74;100050.81;6212235;23;20011;-72
2022/06/22 08:44:28;;;;;;;3.75;1.25;;;;;;;28.20;30.07;100045.38;6212186;23;20079;-71
2022/06/22 08:47:21;;;;;;;11.02;1.60;;;;;;;28.27;29.62;100062.56;6210564;23;20004;-72
2022/06/22 08:50:05;;;;;;;4.70;1.10;;;;;;;28.23;28.70;100055.06;6212330;23;20394;-71
2022/06/22 08:52:39;;;;;;;;;;;;;;;28.15;28.53;100052.75;6213067;23;20088;-72
2022/06/22 08:55:30;;;;;;;2.55;0.90;;;;;;;28.29;28.85;100054.03;6180829;23;19933;-71
2022/06/22 08:58:07;;;;;;;1.73;0.90;;;;;;;28.43;28.47;100058.94;6182160;23;20017;-71
2022/06/22 09:00:44;;;;;;;1.52;0.80;;;;;;;28.33;28.69;100061.56;6182153;23;20047;-72
2022/06/22 09:03:25;;;;;;;10.65;0.93;;;;;;;28.41;28.53;100058.34;6181886;23;20504;-72
2022/06/22 09:06:26;;;;;;;2.38;0.90;;;;;;;28.33;28.60;100060.72;6181866;23;20005;-72
2022/06/22 09:09:18;;;;;;;0.73;0.68;;;;;;;28.41;27.20;100046.47;6081082;23;20082;-71
2022/06/22 09:12:22;;;;;;;3.63;0.80;;;;;;;28.34;27.70;100051.38;6181826;23;20004;-72
2022/06/22 09:15:06;;;;;;;4.88;0.90;;;;;;;28.29;27.71;100049.38;6149444;23;20021;-72
2022/06/22 09:17:40;;;;;;;1.25;0.70;;;;;;;28.33;27.70;100044.16;6182139;23;20059;-73
2022/06/22 09:20:15;;;;;;;2.53;0.60;;;;;;;28.38;28.09;100038.72;6181967;23;20001;-71
2022/06/22 09:23:04;;;;;;;1.92;0.75;;;;;;;28.39;28.08;100040.38;6181458;23;20012;-71
2022/06/22 09:25:47;;;;;;;5.15;0.80;;;;;;;28.44;27.90;100035.78;6163274;23;20059;-72
2022/06/22 09:28:38;;;;;;;4.53;0.90;;;;;;;28.55;28.42;100042.25;6179972;23;20052;-73
2022/06/22 09:31:29;;;;;;;2.13;0.90;;;;;;;28.59;28.51;100048.13;6181259;23;20005;-73
2022/06/22 09:34:13;;;;;;;11.00;1.25;;;;;;;28.63;28.06;100044.56;6181476;23;20005;-72
2022/06/22 09:36:41;;;;;;;2.40;1.05;;;;;;;28.62;27.94;100042.91;6181778;23;20005;-72
2022/06/22 09:39:24;;;;;;;3.60;0.80;;;;;;;28.60;27.38;100036.81;6181463;23;20009;-72
2022/06/22 09:42:21;;;;;;;11.57;1.13;;;;;;;28.62;27.37;100040.13;6181709;23;20380;-72
2022/06/22 09:45:09;;;;;;;8.07;0.82;;;;;;;28.70;27.45;100025.03;6181580;23;20013;-73
2022/06/22 09:47:42;;;;;;;2.55;1.08;;;;;;;28.62;28.10;100042.91;6181336;23;20383;-63
2022/06/22 09:50:48;;;;;;;2.67;1.13;;;;;;;28.67;27.82;100026.41;6181492;23;20007;-63
2022/06/22 09:53:26;;;;;;;2.13;0.70;;;;;;;28.75;27.82;100025.13;6179652;23;20489;-64
2022/06/22 09:56:23;;;;;;;2.25;1.05;;;;;;;28.80;28.06;100020.47;6205192;23;20016;-63
2022/06/22 09:59:17;;;;;;;2.40;0.90;;;;;;;28.83;27.59;100010.81;6184856;23;20012;-63
2022/06/22 10:02:01;;;;;;;2.55;0.80;;;;;;;28.82;27.13;100007.22;6184738;23;20091;-63
2022/06/22 10:04:45;;;;;;;2.80;0.93;;;;;;;28.92;27.05;100012.84;6211477;23;20051;-63
2022/06/22 10:07:41;;;;;;;2.15;0.95;;;;;;;28.82;27.80;100025.72;6184690;23;20609;-64
2022/06/22 10:10:26;;;;;;;3.13;0.98;;;;;;;28.80;27.41;100019.63;6209575;23;20004;-63
2022/06/22 10:13:35;;;;;;;2.42;0.65;;;;;;;28.83;27.55;100008.06;6211122;23;20004;-62
2022/06/22 10:16:39;;;;;;;4.07;0.80;;;;;;;28.88;27.44;100010.88;6184316;23;20070;-62
2022/06/22 10:19:35;;;;;;;0.70;0.55;;;;;;;28.89;27.10;100007.88;6164324;23;20031;-63
2022/06/22 10:22:45;;;;;;;1.00;0.50;;;;;;;28.88;27.23;100008.13;6210988;23;20000;-64
2022/06/22 10:25:16;;;;;;;2.92;1.20;;;;;;;28.89;27.42;100013.41;6161012;23;20433;-73
2022/06/22 10:27:57;;;;;;;1.65;0.90;;;;;;;28.85;27.35;100008.66;6211193;23;20128;-73
2022/06/22 10:31:10;;;;;;;3.08;0.90;;;;;;;28.84;27.20;100005.03;6184432;23;20012;-73
2022/06/22 10:34:11;;;;;;;1.08;0.80;;;;;;;28.86;27.26;100011.16;6089579;23;20348;-73
2022/06/22 10:37:15;;;;;;;2.92;1.00;;;;;;;28.92;27.35;100003.75;6089771;23;20010;-72
2022/06/22 10:45:08;;;;;;;7.63;0.75;;;;;;;29.05;26.95;100011.63;6211296;23;20084;-73
2022/06/22 10:46:09;;;;;;;3.10;0.80;;;;;;;28.96;26.77;99999.34;6210857;23;20074;-73
2022/06/22 10:48:46;;;;;;;3.30;0.80;;;;;;;28.93;26.84;100002.63;6211073;23;20015;-72
2022/06/22 10:51:49;;;;;;;1.85;0.80;;;;;;;29.01;26.54;100003.00;6184221;23;20104;-73
2022/06/22 10:54:39;;;;;;;4.78;1.15;;;;;;;29.12;26.67;100010.34;6210062;23;20454;-72
2022/06/22 10:57:46;;;;;;;5.40;1.10;;;;;;;29.00;27.21;100003.25;6183381;23;20456;-71
2022/06/22 11:00:23;;;;;;;4.18;0.90;;;;;;;29.11;27.23;100005.06;6089011;23;20022;-73
2022/06/22 11:03:17;;;;;;;2.55;0.63;;;;;;;29.12;26.88;100004.81;6088954;23;20520;-72
2022/06/22 11:05:54;;;;;;;2.42;0.75;;;;;;;29.22;25.50;100007.66;6180110;23;20005;-71
2022/06/22 11:08:29;;;;;;;2.92;0.75;;;;;;;29.09;25.62;100005.31;6210408;23;20430;-73
2022/06/22 11:11:16;;;;;;;4.05;0.90;;;;;;;29.12;26.19;100001.19;6210461;23;20012;-73
2022/06/22 11:13:50;;;;;;;14.38;1.38;;;;;;;29.24;25.80;99999.09;6210714;23;20079;-72
2022/06/22 11:16:25;;;;;;;6.35;1.10;;;;;;;29.18;25.61;99994.63;6211079;23;20470;-72
2022/06/22 11:18:50;;;;;;;3.63;0.77;;;;;;;29.13;26.15;99995.41;6210758;23;20015;-71
2022/06/22 11:21:22;;;;;;;4.40;0.60;;;;;;;29.06;26.56;99996.72;6210919;23;20047;-71
2022/06/22 11:24:13;;;;;;;4.32;0.80;;;;;;;29.03;26.61;99994.44;6184221;23;20015;-72
2022/06/22 11:33:17;;;;;;;10.93;1.15;;;;;;;29.05;27.18;99976.53;6210649;23;20102;-73
2022/06/22 11:36:08;;;;;;;2.80;0.65;;;;;;;29.08;27.10;99995.34;6210790;23;20012;-73
2022/06/22 11:39:04;;;;;;;4.88;0.55;;;;;;;29.15;25.73;99982.19;6210745;23;20075;-72
2022/06/22 11:41:53;;;;;;;4.70;0.60;;;;;;;29.30;25.79;99995.28;6210705;23;20484;-72
2022/06/22 11:44:37;;;;;;;1.27;0.57;;;;;;;29.27;24.96;99984.75;6210507;23;20028;-72
2022/06/22 11:47:10;;;;;;;;;;;;;;;29.28;24.66;99987.25;6211300;23;20517;-73
2022/06/22 11:49:43;;;;;;;4.72;0.80;;;;;;;29.17;24.40;99987.44;6211146;23;19904;-72
2022/06/22 11:52:26;;;;;;;1.27;0.70;;;;;;;29.18;23.86;99986.34;6210775;23;20677;-72
2022/06/22 11:55:02;;;;;;;1.52;0.70;;;;;;;29.13;24.33;99986.28;6211053;23;20582;-72
2022/06/22 11:58:00;;;;;;;2.88;0.80;;;;;;;29.01;24.84;99980.09;6184275;23;20055;-73
2022/06/22 12:00:43;;;;;;;5.82;0.85;;;;;;;29.00;25.05;99970.97;6210887;23;19993;-72
2022/06/22 12:03:27;;;;;;;9.98;1.60;;;;;;;29.10;24.96;99970.22;6212486;23;20008;-72
2022/06/22 12:06:01;;;;;;;1.50;0.40;;;;;;;29.15;23.67;99976.66;6213015;23;20429;-72
2022/06/22 12:08:45;;;;;;;2.63;0.52;;;;;;;29.09;23.39;99969.41;6212887;23;20004;-73
2022/06/22 12:11:15;;;;;;;4.38;0.60;;;;;;;29.04;23.24;99974.88;6186237;23;20011;-72
2022/06/22 12:17:02;;;;;;;4.25;0.60;;;;;;;29.18;23.04;99964.22;6212954;23;20016;-72
2022/06/22 12:19:59;;;;;;;2.58;0.63;;;;;;;29.28;23.69;99964.31;6212455;23;20058;-62
2022/06/22 12:22:38;;;;;;;10.20;1.13;;;;;;;29.27;23.48;99940.56;6212184;23;20019;-63
2022/06/22 12:25:25;;;;;;;3.13;0.50;;;;;;;29.43;23.29;99961.69;6211567;23;20031;-62
2022/06/22 12:28:09;;;;;;;1.38;0.52;;;;;;;29.32;23.30;99960.75;6211392;23;20429;-62
2022/06/22 12:30:56;;;;;;;3.13;0.65;;;;;;;29.38;22.21;99968.00;6211631;23;20035;-64
2022/06/22 12:34:10;;;;;;;2.20;0.63;;;;;;;29.35;23.13;99967.69;6211186;23;20080;-63
2022/06/22 12:36:40;;;;;;;4.80;0.80;;;;;;;29.39;23.13;99957.75;6184360;23;20012;-63
2022/06/22 12:39:15;;;;;;;2.63;0.60;;;;;;;29.42;23.25;99949.78;6211257;23;20004;-62